Time;durP1;ratioP1;P1;durP2;ratioP2;P2;SDS_P1;SDS_P2;PMS_P1;PMS_P2;Temp;Humidity;BMP_temperature;BMP_pressure;BME280_temperature;BME280_humidity;BME280_pressure;Samples;Min_cycle;Max_cycle;Signal;HPM_P1;HPM_P2
2023/05/09 00:01:07;;;;;;;25.00;15.30;;;;;;;3.61;57.33;101467.61;131308;1248;107456;-79
2023/05/09 00:04:14;;;;;;;27.50;15.50;;;;;;;3.59;57.54;101468.38;131408;1248;107482;-78
2023/05/09 00:07:20;;;;;;;27.00;15.30;;;;;;;3.58;57.58;101468.09;131544;1248;107403;-78
2023/05/09 00:10:26;;;;;;;26.10;15.30;;;;;;;3.45;57.41;101465.03;131420;1248;107437;-79
2023/05/09 00:13:32;;;;;;;28.60;15.20;;;;;;;3.43;57.59;101463.58;131570;1253;107433;-79
2023/05/09 00:16:38;;;;;;;27.60;15.80;;;;;;;3.43;57.84;101462.50;131853;1247;107190;-79
2023/05/09 00:19:44;;;;;;;27.10;16.00;;;;;;;3.43;57.64;101456.16;131885;1253;107231;-77
2023/05/09 00:22:49;;;;;;;29.20;16.00;;;;;;;3.41;57.72;101455.02;131577;1253;107478;-76
2023/05/09 00:25:55;;;;;;;27.90;15.80;;;;;;;3.39;57.80;101455.48;131422;1253;107257;-79
2023/05/09 00:29:00;;;;;;;25.30;15.50;;;;;;;3.37;58.06;101455.62;131251;1253;107462;-79
2023/05/09 00:32:06;;;;;;;27.00;15.40;;;;;;;3.32;57.89;101456.20;131482;1253;107549;-78
2023/05/09 00:35:12;;;;;;;28.10;16.10;;;;;;;3.22;58.24;101456.35;131435;1253;107517;-78
2023/05/09 00:38:18;;;;;;;28.80;16.50;;;;;;;3.14;58.31;101453.94;131832;1254;107253;-76
2023/05/09 00:41:24;;;;;;;30.40;17.30;;;;;;;3.09;58.32;101461.35;131594;1253;105590;-77
2023/05/09 00:44:30;;;;;;;28.90;16.80;;;;;;;3.07;58.28;101456.58;131587;1251;107204;-77
2023/05/09 00:47:37;;;;;;;31.80;17.90;;;;;;;3.05;58.53;101458.60;131565;1253;107397;-77
2023/05/09 00:50:43;;;;;;;33.90;18.90;;;;;;;3.05;58.55;101458.05;131705;1260;107531;-77
2023/05/09 00:53:49;;;;;;;37.40;19.90;;;;;;;3.07;58.49;101458.11;131722;1248;107408;-78
2023/05/09 00:56:55;;;;;;;50.60;22.50;;;;;;;3.06;58.48;101459.20;131715;1252;105661;-77
2023/05/09 01:00:03;;;;;;;46.90;21.00;;;;;;;3.04;58.68;101454.24;131482;1257;107090;-77
2023/05/09 01:03:09;;;;;;;48.50;21.70;;;;;;;3.03;58.69;101450.92;131628;1257;107249;-77
2023/05/09 01:06:26;;;;;;;40.30;20.90;;;;;;;3.03;58.76;101453.95;131424;1251;107440;-77
2023/05/09 01:09:43;;;;;;;33.70;18.40;;;;;;;3.02;58.57;101455.42;131580;1247;107530;-76
2023/05/09 01:12:54;;;;;;;39.30;20.00;;;;;;;2.98;58.81;101453.49;131653;1253;108118;-77
2023/05/09 01:16:07;;;;;;;37.50;20.90;;;;;;;2.94;59.10;101449.81;131682;1247;107316;-77
2023/05/09 01:19:27;;;;;;;40.50;21.20;;;;;;;2.88;58.98;101453.98;131739;1253;107514;-77
2023/05/09 01:22:36;;;;;;;38.90;21.50;;;;;;;2.84;59.09;101450.27;131691;1253;107486;-77
2023/05/09 01:25:54;;;;;;;39.90;21.40;;;;;;;2.81;58.98;101448.66;131759;1253;107479;-77
2023/05/09 01:29:29;;;;;;;38.10;21.10;;;;;;;2.79;59.11;101448.23;131720;1253;107541;-77
2023/05/09 01:32:38;;;;;;;38.30;20.80;;;;;;;2.78;59.22;101442.31;131401;1251;107237;-77
2023/05/09 01:35:47;;;;;;;40.10;21.60;;;;;;;2.75;59.14;101445.95;131546;1253;107135;-77
2023/05/09 01:38:54;;;;;;;34.80;19.80;;;;;;;2.72;59.26;101446.27;131513;1253;107617;-78
2023/05/09 01:42:04;;;;;;;35.50;18.80;;;;;;;2.72;59.33;101443.83;131463;1253;106740;-79
2023/05/09 01:45:13;;;;;;;38.10;19.20;;;;;;;2.72;59.30;101445.21;131307;1253;107556;-79
2023/05/09 01:48:20;;;;;;;36.90;19.40;;;;;;;2.70;59.25;101446.54;131407;1253;107415;-78
2023/05/09 01:51:30;;;;;;;36.60;20.40;;;;;;;2.65;59.38;101443.25;131247;1254;107239;-78
2023/05/09 01:54:38;;;;;;;35.40;19.70;;;;;;;2.64;59.37;101440.19;131281;1254;107419;-78
2023/05/09 01:57:45;;;;;;;36.90;19.00;;;;;;;2.64;59.30;101440.73;131271;1253;107466;-79
2023/05/09 02:00:52;;;;;;;37.10;20.10;;;;;;;2.60;59.49;101440.17;131361;1254;107610;-76
2023/05/09 02:03:59;;;;;;;40.60;20.30;;;;;;;2.57;59.43;101438.90;131520;1253;107460;-78
2023/05/09 02:07:07;;;;;;;38.90;20.20;;;;;;;2.56;59.52;101437.38;131654;1248;108004;-77
2023/05/09 02:10:15;;;;;;;36.90;19.40;;;;;;;2.54;59.52;101440.97;132143;1248;107535;-77
2023/05/09 02:13:21;;;;;;;37.90;20.60;;;;;;;2.51;59.59;101435.52;131723;1250;108015;-76
2023/05/09 02:16:26;;;;;;;36.60;19.50;;;;;;;2.51;59.87;101438.29;131524;1247;107307;-77
2023/05/09 02:19:32;;;;;;;36.00;19.40;;;;;;;2.51;59.71;101436.41;131581;1253;107576;-76
2023/05/09 02:22:39;;;;;;;32.00;19.20;;;;;;;2.47;59.66;101430.80;131675;1248;107538;-77
2023/05/09 02:25:45;;;;;;;35.00;18.40;;;;;;;2.44;59.70;101430.95;131961;1251;107400;-77
2023/05/09 02:28:52;;;;;;;34.40;19.20;;;;;;;2.37;59.92;101430.55;131877;1253;107972;-77
2023/05/09 02:32:00;;;;;;;35.40;19.20;;;;;;;2.30;59.78;101428.20;132000;1253;107507;-77
2023/05/09 02:35:09;;;;;;;34.30;18.60;;;;;;;2.27;60.14;101429.06;132092;1253;106976;-77
2023/05/09 02:38:15;;;;;;;32.50;18.50;;;;;;;2.25;59.87;101430.26;131982;1253;108236;-77
2023/05/09 02:41:21;;;;;;;32.80;18.10;;;;;;;2.21;59.93;101431.62;132469;1247;107552;-78
2023/05/09 02:44:26;;;;;;;34.40;19.00;;;;;;;2.17;59.77;101431.83;131768;1252;106712;-79
2023/05/09 02:47:32;;;;;;;32.40;18.40;;;;;;;2.12;60.04;101432.93;131258;1253;107426;-77
2023/05/09 02:50:38;;;;;;;34.50;18.40;;;;;;;2.15;60.21;101431.74;131811;1254;107353;-79
2023/05/09 02:53:44;;;;;;;31.50;18.70;;;;;;;2.18;60.39;101430.20;131994;1253;107495;-78
2023/05/09 02:56:49;;;;;;;35.50;19.70;;;;;;;2.19;60.26;101430.33;132005;1247;107611;-78
2023/05/09 02:59:55;;;;;;;36.30;19.20;;;;;;;2.20;60.27;101426.92;131762;1250;106393;-78
2023/05/09 03:03:01;;;;;;;33.60;18.90;;;;;;;2.23;60.23;101427.16;132062;1253;107361;-78
2023/05/09 03:06:07;;;;;;;32.80;18.40;;;;;;;2.22;60.35;101425.27;132067;1253;107449;-78
2023/05/09 03:09:13;;;;;;;32.90;18.50;;;;;;;2.22;60.35;101426.17;131966;1253;107448;-78
2023/05/09 03:12:18;;;;;;;35.10;18.20;;;;;;;2.21;60.54;101429.16;131999;1253;107517;-78
2023/05/09 03:15:25;;;;;;;31.20;18.00;;;;;;;2.19;60.59;101436.48;131892;1253;105731;-78
2023/05/09 03:18:31;;;;;;;35.70;18.50;;;;;;;2.14;60.52;101440.37;132011;1247;107360;-78
2023/05/09 03:21:37;;;;;;;31.50;18.60;;;;;;;2.13;60.69;101442.50;131997;1253;107534;-77
2023/05/09 03:24:42;;;;;;;32.20;18.10;;;;;;;2.16;60.71;101433.63;131918;1253;107488;-77
2023/05/09 03:27:48;;;;;;;33.80;18.70;;;;;;;2.20;60.90;101438.39;131822;1252;107366;-78
2023/05/09 03:30:54;;;;;;;31.10;18.10;;;;;;;2.22;60.87;101435.25;131998;1253;107425;-78
2023/05/09 03:34:01;;;;;;;36.30;18.60;;;;;;;2.25;60.78;101433.22;132170;1253;107507;-78
2023/05/09 03:37:07;;;;;;;36.30;19.10;;;;;;;2.28;60.86;101438.16;131859;1248;107670;-78
2023/05/09 03:40:16;;;;;;;32.50;17.90;;;;;;;2.34;60.87;101437.20;132094;1253;107391;-78
2023/05/09 03:43:27;;;;;;;35.80;18.80;;;;;;;2.43;61.03;101440.98;132053;1253;107324;-78
2023/05/09 03:46:33;;;;;;;29.40;16.40;;;;;;;2.58;61.06;101433.95;131798;1256;107243;-78
2023/05/09 03:49:40;;;;;;;31.80;18.10;;;;;;;2.82;61.00;101436.13;131924;1252;107608;-77
2023/05/09 03:52:46;;;;;;;32.90;18.40;;;;;;;3.16;61.06;101432.72;131811;1251;107466;-78
2023/05/09 03:55:54;;;;;;;36.50;18.60;;;;;;;3.48;61.05;101433.06;132153;1252;107426;-78
2023/05/09 03:59:00;;;;;;;31.60;18.90;;;;;;;3.80;60.91;101437.56;132300;1253;107522;-78
2023/05/09 04:02:06;;;;;;;33.80;18.70;;;;;;;4.11;60.96;101436.10;132326;1250;107559;-78
2023/05/09 04:05:12;;;;;;;33.80;19.10;;;;;;;4.41;60.77;101435.02;132031;1250;107528;-78
2023/05/09 04:08:17;;;;;;;31.20;18.40;;;;;;;4.66;60.81;101432.90;131872;1256;106740;-79
2023/05/09 04:11:23;;;;;;;30.70;17.60;;;;;;;4.93;60.74;101430.70;132362;1250;107721;-78
2023/05/09 04:14:29;;;;;;;29.00;17.80;;;;;;;5.20;60.67;101432.83;132039;1253;107246;-78
2023/05/09 04:17:35;;;;;;;27.20;17.60;;;;;;;5.48;60.60;101432.09;132379;1251;107395;-78
2023/05/09 04:20:41;;;;;;;29.50;18.30;;;;;;;5.68;60.60;101425.27;132540;1250;106391;-78
2023/05/09 04:23:47;;;;;;;28.90;17.80;;;;;;;5.88;60.65;101429.67;132378;1250;107470;-77
2023/05/09 04:26:53;;;;;;;27.40;17.40;;;;;;;6.09;60.69;101430.70;132076;1250;107252;-77
2023/05/09 04:30:01;;;;;;;25.80;16.80;;;;;;;6.28;60.42;101425.66;131914;1250;107358;-79
2023/05/09 04:33:07;;;;;;;30.00;17.50;;;;;;;6.46;60.66;101424.71;131860;1251;107111;-79
2023/05/09 04:36:13;;;;;;;27.70;17.40;;;;;;;6.64;60.49;101424.41;131858;1253;107542;-76
2023/05/09 04:39:19;;;;;;;27.80;18.00;;;;;;;6.85;60.61;101420.75;131725;1253;107397;-77
2023/05/09 04:42:32;;;;;;;26.90;17.00;;;;;;;7.01;60.85;101415.63;131592;1251;107361;-77
2023/05/09 04:45:38;;;;;;;25.70;17.40;;;;;;;7.21;60.74;101421.56;131569;1253;107451;-76
2023/05/09 04:48:43;;;;;;;27.70;18.10;;;;;;;7.37;60.67;101421.95;131507;1248;107623;-77
2023/05/09 04:51:49;;;;;;;27.60;18.20;;;;;;;7.57;61.19;101422.91;131338;1253;107557;-78
2023/05/09 04:54:55;;;;;;;27.80;17.90;;;;;;;7.75;61.10;101421.59;131266;1254;106464;-79
2023/05/09 04:58:01;;;;;;;28.50;18.70;;;;;;;7.95;61.05;101422.04;131207;1256;107526;-78
2023/05/09 05:01:06;;;;;;;29.20;18.40;;;;;;;8.14;61.38;101423.02;131324;1247;107350;-79
2023/05/09 05:04:12;;;;;;;28.20;17.60;;;;;;;8.30;61.25;101421.70;131292;1250;108580;-79
2023/05/09 05:07:18;;;;;;;24.30;15.70;;;;;;;8.47;61.29;101419.92;131260;1247;107557;-79
2023/05/09 05:10:23;;;;;;;20.00;13.60;;;;;;;8.66;61.35;101420.17;131446;1254;105392;-77
2023/05/09 05:13:33;;;;;;;21.40;12.80;;;;;;;8.87;61.27;101416.40;131218;1253;107367;-77
2023/05/09 05:16:39;;;;;;;17.00;12.70;;;;;;;9.05;60.98;101415.36;131289;1250;107367;-77
2023/05/09 05:19:45;;;;;;;17.60;12.10;;;;;;;9.24;60.99;101419.60;131236;1253;108110;-78
2023/05/09 05:22:53;;;;;;;18.50;13.00;;;;;;;9.45;61.16;101418.40;131329;1253;107422;-79
2023/05/09 05:25:59;;;;;;;18.40;12.10;;;;;;;9.63;60.79;101415.64;131239;1252;107577;-78
2023/05/09 05:29:05;;;;;;;21.40;12.20;;;;;;;9.76;60.55;101416.16;131116;1253;107471;-78
2023/05/09 05:32:11;;;;;;;15.00;11.40;;;;;;;9.91;60.58;101414.36;131147;1253;107420;-79
2023/05/09 05:35:18;;;;;;;16.10;11.30;;;;;;;10.04;60.39;101414.14;131345;1253;108077;-78
2023/05/09 05:38:23;;;;;;;15.10;11.00;;;;;;;10.16;59.86;101411.61;131206;1253;107447;-78
2023/05/09 05:41:31;;;;;;;18.10;12.00;;;;;;;10.32;60.54;101413.42;131290;1253;107364;-78
2023/05/09 05:44:36;;;;;;;13.90;10.60;;;;;;;10.45;59.92;101417.20;131318;1253;107339;-78
2023/05/09 05:47:42;;;;;;;14.90;9.80;;;;;;;10.52;59.86;101415.52;131296;1253;107531;-78
2023/05/09 05:50:48;;;;;;;14.10;10.30;;;;;;;10.62;59.99;101417.43;131443;1253;107518;-78
2023/05/09 05:53:55;;;;;;;13.20;9.80;;;;;;;10.70;59.89;101412.86;131204;1253;107404;-78
2023/05/09 05:57:02;;;;;;;14.90;9.50;;;;;;;10.78;59.77;101411.95;131211;1253;107494;-78
2023/05/09 06:00:10;;;;;;;15.10;9.00;;;;;;;10.87;59.65;101411.33;131314;1253;107498;-78
2023/05/09 06:03:33;;;;;;;12.20;8.30;;;;;;;10.95;59.25;101410.29;131381;1248;107510;-78
2023/05/09 06:06:42;;;;;;;13.10;8.30;;;;;;;11.02;59.22;101409.91;131175;1253;107571;-78
2023/05/09 06:09:47;;;;;;;10.30;7.60;;;;;;;11.10;59.42;101409.56;131397;1250;107481;-78
2023/05/09 06:12:53;;;;;;;11.30;7.50;;;;;;;11.16;59.06;101404.96;131615;1250;107467;-78
2023/05/09 06:15:58;;;;;;;10.40;7.30;;;;;;;11.20;58.79;101400.36;131499;1253;107523;-77
2023/05/09 06:19:05;;;;;;;10.60;7.00;;;;;;;11.25;58.53;101403.15;131428;1251;107321;-78
2023/05/09 06:22:11;;;;;;;9.80;6.90;;;;;;;11.29;58.73;101400.63;131366;1253;107451;-78
2023/05/09 06:25:17;;;;;;;9.80;6.10;;;;;;;11.36;58.35;101399.38;131520;1246;107514;-78
2023/05/09 06:28:22;;;;;;;11.60;6.10;;;;;;;11.43;58.34;101398.61;131520;1258;107430;-78
2023/05/09 06:31:28;;;;;;;9.80;7.00;;;;;;;11.52;58.43;101398.36;131401;1260;107374;-79
2023/05/09 06:34:33;;;;;;;7.80;5.90;;;;;;;11.61;57.84;101397.60;131451;1260;107539;-78
2023/05/09 06:37:39;;;;;;;8.70;6.00;;;;;;;11.66;57.44;101394.33;131436;1250;107447;-78
2023/05/09 06:40:45;;;;;;;8.20;6.70;;;;;;;11.71;56.89;101395.70;131386;1248;107335;-78
2023/05/09 06:43:50;;;;;;;8.20;6.50;;;;;;;11.76;57.22;101394.53;131465;1251;107413;-78
2023/05/09 06:46:56;;;;;;;10.90;6.50;;;;;;;11.83;57.28;101394.67;131509;1260;107366;-78
2023/05/09 06:50:01;;;;;;;8.80;6.20;;;;;;;11.91;57.12;101393.57;131558;1254;106509;-78
2023/05/09 06:53:07;;;;;;;8.30;6.00;;;;;;;11.99;56.86;101395.43;131443;1251;107477;-78
2023/05/09 06:56:12;;;;;;;10.50;6.60;;;;;;;12.06;56.49;101393.15;131388;1261;107494;-78
2023/05/09 06:59:18;;;;;;;8.70;6.10;;;;;;;12.14;56.74;101387.88;131561;1248;108142;-78
2023/05/09 07:02:23;;;;;;;8.50;5.80;;;;;;;12.22;56.75;101386.05;131496;1250;107378;-78
2023/05/09 07:05:29;;;;;;;8.00;5.50;;;;;;;12.31;56.12;101394.39;131567;1250;108125;-78
2023/05/09 07:08:35;;;;;;;7.10;4.90;;;;;;;12.41;56.07;101392.11;131425;1260;107525;-77
2023/05/09 07:11:40;;;;;;;7.30;4.90;;;;;;;12.49;55.56;101385.25;131459;1250;107499;-77
2023/05/09 07:14:46;;;;;;;7.00;4.70;;;;;;;12.59;55.62;101382.59;131381;1254;107260;-77
2023/05/09 07:17:52;;;;;;;6.10;4.40;;;;;;;12.69;55.28;101372.80;131445;1259;107512;-77
2023/05/09 07:20:57;;;;;;;5.40;4.20;;;;;;;12.77;53.59;101374.58;131427;1254;107523;-77
2023/05/09 07:24:03;;;;;;;4.90;4.20;;;;;;;12.83;53.66;101366.52;131564;1250;107529;-76
2023/05/09 07:27:09;;;;;;;5.40;3.90;;;;;;;12.89;53.07;101370.04;131455;1251;107500;-77
2023/05/09 07:30:15;;;;;;;5.50;4.10;;;;;;;12.94;53.24;101366.69;131472;1253;106664;-77
2023/05/09 07:33:20;;;;;;;4.40;3.40;;;;;;;13.04;52.45;101360.10;131405;1254;107331;-77
2023/05/09 07:36:26;;;;;;;4.90;4.10;;;;;;;13.14;52.30;101364.89;131473;1250;107503;-77
2023/05/09 07:39:31;;;;;;;4.00;3.40;;;;;;;13.21;51.49;101356.59;131282;1251;107367;-77
2023/05/09 07:42:37;;;;;;;4.70;3.70;;;;;;;13.26;51.36;101354.84;131381;1254;107273;-77
2023/05/09 07:45:43;;;;;;;6.20;3.70;;;;;;;13.32;50.62;101350.86;131410;1250;107527;-77
2023/05/09 07:48:49;;;;;;;4.80;3.70;;;;;;;13.39;50.39;101347.23;131479;1253;107318;-77
2023/05/09 07:51:54;;;;;;;4.20;3.60;;;;;;;13.45;50.22;101346.84;131350;1255;107208;-77
2023/05/09 07:55:00;;;;;;;5.60;3.50;;;;;;;13.50;49.46;101346.52;131404;1253;105737;-76
2023/05/09 07:58:05;;;;;;;5.20;3.30;;;;;;;13.56;49.75;101342.23;131419;1254;107585;-78
2023/05/09 08:01:11;;;;;;;4.80;3.30;;;;;;;13.64;49.55;101348.27;131442;1248;107212;-77
2023/05/09 08:04:17;;;;;;;5.10;3.20;;;;;;;13.69;48.11;101344.24;131652;1251;107455;-77
2023/05/09 08:07:22;;;;;;;4.00;3.20;;;;;;;13.76;48.34;101342.29;131483;1254;107525;-77
2023/05/09 08:10:29;;;;;;;4.40;2.90;;;;;;;13.83;48.25;101336.41;131579;1260;108796;-77
2023/05/09 08:13:35;;;;;;;3.70;3.20;;;;;;;13.87;48.56;101327.83;131597;1254;107242;-77
2023/05/09 08:16:42;;;;;;;4.90;3.10;;;;;;;13.94;48.11;101324.14;131583;1253;107338;-77
2023/05/09 08:19:47;;;;;;;5.20;3.30;;;;;;;14.01;47.18;101321.10;131547;1254;107245;-77
2023/05/09 08:22:53;;;;;;;6.00;3.50;;;;;;;14.04;47.08;101320.40;131475;1250;106515;-77
2023/05/09 08:25:58;;;;;;;3.80;3.10;;;;;;;14.06;46.88;101313.14;131418;1248;106613;-77
2023/05/09 08:29:04;;;;;;;5.40;3.20;;;;;;;14.07;46.45;101312.45;131424;1250;107485;-76
2023/05/09 08:32:09;;;;;;;4.20;3.20;;;;;;;14.08;46.53;101307.85;131440;1260;107574;-81
2023/05/09 08:35:15;;;;;;;4.10;2.90;;;;;;;14.14;46.76;101303.73;131701;1260;107360;-80
2023/05/09 08:38:21;;;;;;;6.10;3.00;;;;;;;14.22;45.61;101306.88;131455;1247;107347;-76
2023/05/09 08:41:27;;;;;;;4.10;2.90;;;;;;;14.27;45.30;101301.95;131349;1254;107498;-77
2023/05/09 08:44:33;;;;;;;4.30;2.50;;;;;;;14.29;44.75;101301.74;131460;1251;107242;-77
2023/05/09 08:47:39;;;;;;;3.50;2.60;;;;;;;14.31;44.95;101298.79;131445;1250;107508;-76
2023/05/09 08:50:45;;;;;;;3.40;2.20;;;;;;;14.35;44.41;101303.79;131458;1252;106928;-77
2023/05/09 08:53:51;;;;;;;5.20;2.90;;;;;;;14.38;43.83;101288.66;131447;1261;107479;-77
2023/05/09 08:56:57;;;;;;;4.20;2.80;;;;;;;14.44;44.56;101280.59;131518;1254;108647;-77
2023/05/09 09:00:05;;;;;;;4.50;3.10;;;;;;;14.52;44.05;101279.02;131324;1254;107537;-77
2023/05/09 09:03:10;;;;;;;4.90;3.00;;;;;;;14.58;44.17;101272.74;131487;1251;107551;-77
2023/05/09 09:06:17;;;;;;;4.50;2.50;;;;;;;14.65;43.39;101278.86;131438;1253;106535;-77
2023/05/09 09:09:24;;;;;;;4.00;2.60;;;;;;;14.66;41.87;101286.23;131464;1259;107506;-77
2023/05/09 09:12:31;;;;;;;4.40;2.90;;;;;;;14.66;42.46;101282.71;131540;1254;107242;-78
2023/05/09 09:15:38;;;;;;;4.20;2.60;;;;;;;14.69;42.03;101284.48;131463;1248;107508;-77
2023/05/09 09:18:44;;;;;;;3.80;2.60;;;;;;;14.73;40.97;101276.07;131557;1260;106670;-77
2023/05/09 09:21:53;;;;;;;3.90;2.70;;;;;;;14.77;41.69;101286.06;131513;1251;106783;-78
2023/05/09 09:25:00;;;;;;;3.70;3.00;;;;;;;14.78;41.78;101281.60;131498;1250;107411;-77
2023/05/09 09:28:06;;;;;;;5.70;3.50;;;;;;;14.79;41.47;101277.67;131474;1255;107242;-78
2023/05/09 09:31:26;;;;;;;5.30;3.50;;;;;;;14.80;41.58;101269.77;131403;1253;107488;-78
2023/05/09 09:34:31;;;;;;;4.60;3.50;;;;;;;14.83;41.86;101264.30;131443;1260;107526;-78
2023/05/09 09:37:40;;;;;;;5.60;3.90;;;;;;;14.90;42.54;101265.77;131557;1260;107376;-77
2023/05/09 09:40:54;;;;;;;5.90;3.70;;;;;;;14.99;42.38;101262.88;131441;1253;107512;-78
2023/05/09 09:43:59;;;;;;;4.90;3.70;;;;;;;15.06;42.29;101263.73;131437;1254;107549;-77
2023/05/09 09:47:09;;;;;;;5.40;3.50;;;;;;;15.11;42.07;101253.17;131468;1251;107607;-77
2023/05/09 09:50:17;;;;;;;3.70;2.90;;;;;;;15.14;41.55;101249.86;131555;1253;107484;-78
2023/05/09 09:53:23;;;;;;;3.40;2.60;;;;;;;15.15;41.07;101248.19;131430;1260;106104;-78
2023/05/09 09:56:41;;;;;;;3.60;3.20;;;;;;;15.18;40.67;101248.19;131415;1260;106039;-78
2023/05/09 09:59:59;;;;;;;3.40;2.40;;;;;;;15.23;40.95;101249.82;131430;1250;107469;-78
2023/05/09 10:03:05;;;;;;;3.70;2.40;;;;;;;15.23;40.47;101250.34;131502;1254;107444;-77
2023/05/09 10:06:14;;;;;;;4.40;2.70;;;;;;;15.26;40.94;101241.08;131552;1253;107498;-77
2023/05/09 10:09:20;;;;;;;3.20;2.40;;;;;;;15.29;40.24;101239.71;131501;1254;107520;-77
2023/05/09 10:12:26;;;;;;;5.40;2.70;;;;;;;15.29;39.79;101240.92;131504;1253;106785;-77
2023/05/09 10:15:35;;;;;;;4.60;2.70;;;;;;;15.30;39.47;101234.50;131576;1248;105984;-77
2023/05/09 10:18:44;;;;;;;4.70;2.60;;;;;;;15.30;40.14;101222.70;131559;1260;106642;-77
2023/05/09 10:21:53;;;;;;;5.00;2.60;;;;;;;15.36;40.26;101219.10;131494;1254;107460;-78
2023/05/09 10:25:06;;;;;;;4.90;2.60;;;;;;;15.43;39.50;101222.30;131481;1251;107596;-78
2023/05/09 10:28:14;;;;;;;4.80;2.40;;;;;;;15.47;38.74;101220.56;131410;1254;107486;-77
2023/05/09 10:31:25;;;;;;;3.70;2.50;;;;;;;15.49;39.26;101219.33;131391;1257;107509;-78
2023/05/09 10:34:38;;;;;;;3.30;2.40;;;;;;;15.51;39.30;101214.56;131482;1260;107417;-80
2023/05/09 10:37:43;;;;;;;3.80;2.50;;;;;;;15.53;39.81;101206.53;131492;1259;105931;-77
2023/05/09 10:40:50;;;;;;;3.40;2.60;;;;;;;15.56;38.95;101201.04;131522;1248;107238;-78
2023/05/09 10:43:58;;;;;;;3.80;2.50;;;;;;;15.58;38.58;101203.53;131472;1260;107500;-77
2023/05/09 10:47:04;;;;;;;3.90;2.40;;;;;;;15.59;38.33;101195.66;131614;1248;105904;-77
2023/05/09 10:50:12;;;;;;;4.80;2.40;;;;;;;15.59;38.41;101193.54;131551;1259;107527;-77
2023/05/09 10:53:17;;;;;;;4.20;2.50;;;;;;;15.58;38.54;101185.04;131498;1253;108535;-78
2023/05/09 10:56:30;;;;;;;2.70;2.40;;;;;;;15.59;38.71;101172.19;131535;1248;107611;-79
2023/05/09 10:59:40;;;;;;;4.40;2.50;;;;;;;15.66;38.64;101170.23;131583;1248;107187;-77
2023/05/09 11:03:08;;;;;;;3.50;2.60;;;;;;;15.71;38.31;101166.38;131495;1254;107637;-77
2023/05/09 11:06:49;;;;;;;5.80;2.30;;;;;;;15.78;38.45;101168.64;131458;1248;107247;-78
2023/05/09 11:10:09;;;;;;;5.30;2.30;;;;;;;15.84;38.31;101161.52;131467;1258;107259;-78
2023/05/09 11:13:22;;;;;;;4.00;2.40;;;;;;;15.88;38.49;101160.52;131531;1248;106731;-77
2023/05/09 11:16:27;;;;;;;3.40;2.50;;;;;;;15.94;38.41;101152.83;131473;1253;107394;-78
2023/05/09 11:19:38;;;;;;;3.80;2.50;;;;;;;16.01;38.16;101151.86;131453;1254;107262;-77
2023/05/09 11:22:46;;;;;;;6.80;2.60;;;;;;;16.02;36.90;101149.10;131523;1250;107530;-77
2023/05/09 11:25:52;;;;;;;3.10;2.40;;;;;;;16.02;37.58;101146.08;131433;1251;107235;-77
2023/05/09 11:29:01;;;;;;;3.40;2.50;;;;;;;16.04;37.42;101131.46;131457;1253;107191;-77
2023/05/09 11:32:07;;;;;;;4.10;2.40;;;;;;;16.08;37.64;101134.83;131464;1258;107212;-77
2023/05/09 11:35:16;;;;;;;5.40;3.10;;;;;;;16.12;37.84;101124.16;131410;1251;107533;-78
2023/05/09 11:38:24;;;;;;;4.00;2.70;;;;;;;16.16;36.95;101123.26;131460;1248;105510;-78
2023/05/09 11:41:30;;;;;;;3.00;2.60;;;;;;;16.16;37.09;101120.92;131481;1248;107241;-78
2023/05/09 11:44:36;;;;;;;5.70;2.70;;;;;;;16.14;36.58;101122.51;131463;1247;107514;-77
2023/05/09 11:47:42;;;;;;;3.40;2.50;;;;;;;16.10;36.82;101111.78;131550;1248;107481;-78
2023/05/09 11:50:49;;;;;;;3.60;2.70;;;;;;;16.09;36.09;101110.23;131592;1253;107339;-78
2023/05/09 11:53:55;;;;;;;3.80;2.80;;;;;;;16.07;36.06;101106.52;131589;1248;107556;-77
2023/05/09 11:57:01;;;;;;;3.20;2.70;;;;;;;16.07;36.55;101098.12;131445;1252;107629;-76
2023/05/09 12:00:11;;;;;;;2.90;2.30;;;;;;;16.10;36.58;101094.39;131549;1255;107508;-77
2023/05/09 12:03:16;;;;;;;3.90;2.60;;;;;;;16.15;36.24;101094.04;131573;1250;107505;-77
2023/05/09 12:06:22;;;;;;;3.30;2.40;;;;;;;16.21;36.55;101088.02;131592;1252;107528;-77
2023/05/09 12:09:31;;;;;;;3.40;2.50;;;;;;;16.29;36.26;101084.23;131519;1248;107477;-77
2023/05/09 12:12:41;;;;;;;5.60;2.70;;;;;;;16.35;36.38;101078.87;131527;1254;107463;-77
2023/05/09 12:15:47;;;;;;;3.20;2.60;;;;;;;16.42;36.36;101083.71;131504;1254;107575;-79
2023/05/09 12:18:54;;;;;;;4.10;2.50;;;;;;;16.44;36.33;101081.15;131501;1252;107509;-77
2023/05/09 12:22:01;;;;;;;7.10;3.10;;;;;;;16.47;36.33;101077.00;131605;1251;107518;-77
2023/05/09 12:25:10;;;;;;;3.70;2.60;;;;;;;16.47;35.95;101067.65;131542;1251;107492;-78
2023/05/09 12:28:17;;;;;;;5.00;2.60;;;;;;;16.45;36.13;101061.45;131581;1248;106750;-78
2023/05/09 12:31:23;;;;;;;8.10;3.20;;;;;;;16.49;36.32;101057.27;131500;1254;106457;-78
2023/05/09 12:34:29;;;;;;;3.30;2.80;;;;;;;16.52;35.46;101058.90;131495;1259;106396;-78
2023/05/09 12:37:35;;;;;;;3.60;2.60;;;;;;;16.52;35.28;101057.13;131572;1248;107213;-78
2023/05/09 12:40:41;;;;;;;3.90;2.60;;;;;;;16.50;35.74;101045.45;131443;1254;107262;-78
2023/05/09 12:43:50;;;;;;;3.60;2.70;;;;;;;16.54;35.89;101043.20;131544;1257;107281;-79
2023/05/09 12:46:57;;;;;;;5.70;2.70;;;;;;;16.58;35.83;101044.25;131721;1251;107429;-78
2023/05/09 12:50:05;;;;;;;5.20;2.60;;;;;;;16.61;35.56;101030.62;131714;1248;107350;-78
2023/05/09 12:53:10;;;;;;;3.20;2.60;;;;;;;16.59;35.59;101025.73;131575;1251;107211;-80
2023/05/09 12:56:17;;;;;;;5.40;2.90;;;;;;;16.62;35.89;101022.56;131752;1250;107540;-76
2023/05/09 12:59:24;;;;;;;4.40;2.50;;;;;;;16.64;34.97;101020.85;131687;1251;106744;-79
2023/05/09 13:02:35;;;;;;;3.30;2.50;;;;;;;16.70;35.02;101022.70;131627;1260;107507;-77
2023/05/09 13:05:41;;;;;;;6.20;2.20;;;;;;;16.67;34.38;101018.05;131480;1254;107482;-77
2023/05/09 13:09:00;;;;;;;3.90;2.40;;;;;;;16.64;34.71;101005.55;131119;1253;107540;-78
2023/05/09 13:12:08;;;;;;;3.20;2.20;;;;;;;16.69;33.83;101002.54;131191;1252;107550;-77
2023/05/09 13:15:15;;;;;;;5.80;2.20;;;;;;;16.71;34.08;101000.35;131125;1263;107463;-78
2023/05/09 13:18:23;;;;;;;3.20;2.00;;;;;;;16.71;33.98;100993.66;131190;1254;107535;-78
2023/05/09 13:21:28;;;;;;;5.50;2.30;;;;;;;16.74;33.96;100990.41;131205;1251;107258;-77
2023/05/09 13:24:34;;;;;;;4.70;2.30;;;;;;;16.72;34.00;100983.65;131071;1253;107576;-77
2023/05/09 13:27:40;;;;;;;2.90;2.30;;;;;;;16.68;33.71;100975.62;131409;1255;107503;-78
2023/05/09 13:30:45;;;;;;;3.00;2.30;;;;;;;16.75;34.33;100979.38;131318;1261;107966;-78
2023/05/09 13:33:51;;;;;;;3.50;2.10;;;;;;;16.78;34.40;100981.04;131348;1254;107509;-77
2023/05/09 13:36:56;;;;;;;4.40;2.30;;;;;;;16.80;34.33;100971.13;131323;1252;107555;-77
2023/05/09 13:40:02;;;;;;;2.50;1.90;;;;;;;16.81;34.39;100970.25;131289;1252;107527;-77
2023/05/09 13:43:07;;;;;;;4.30;2.40;;;;;;;16.84;34.14;100967.41;131270;1253;106667;-77
2023/05/09 13:46:13;;;;;;;3.70;2.40;;;;;;;16.83;33.67;100964.06;131134;1254;107488;-77
2023/05/09 13:49:19;;;;;;;3.40;2.50;;;;;;;16.82;34.19;100960.27;131197;1263;106928;-77
2023/05/09 13:52:25;;;;;;;4.30;2.40;;;;;;;16.83;33.84;100951.19;131203;1252;107611;-77
2023/05/09 13:55:30;;;;;;;6.60;2.40;;;;;;;16.81;34.14;100953.69;131231;1255;106787;-77
2023/05/09 13:58:36;;;;;;;5.80;3.10;;;;;;;16.83;34.28;100951.83;131317;1251;107553;-77
2023/05/09 14:01:41;;;;;;;6.70;3.90;;;;;;;16.83;33.93;100942.90;131210;1260;107412;-77
2023/05/09 14:04:47;;;;;;;8.30;4.70;;;;;;;16.82;34.66;100941.95;131478;1254;107525;-77